Time;durP1;ratioP1;P1;durP2;ratioP2;P2;SDS_P1;SDS_P2;PMS_P1;PMS_P2;Temp;Humidity;BMP_temperature;BMP_pressure;BME280_temperature;BME280_humidity;BME280_pressure;Samples;Min_cycle;Max_cycle;Signal;HPM_P1;HPM_P2
2021/11/27 00:01:08;;;;;;;10.23;5.82;;;2.60;99.90;;;;;;5011463;28;20030;-51
2021/11/27 00:03:33;;;;;;;8.27;5.07;;;2.60;99.90;;;;;;5011775;28;20042;-47
2021/11/27 00:05:59;;;;;;;9.18;5.45;;;2.60;99.90;;;;;;5011814;28;20058;-51
2021/11/27 00:08:26;;;;;;;10.95;6.18;;;2.60;99.90;;;;;;5011755;28;20034;-52
2021/11/27 00:10:54;;;;;;;14.32;5.70;;;2.60;99.90;;;;;;5011756;28;20101;-48
2021/11/27 00:13:22;;;;;;;9.70;5.50;;;2.60;99.90;;;;;;5011866;28;20527;-49
2021/11/27 00:15:48;;;;;;;8.38;5.10;;;2.60;99.90;;;;;;5010757;28;20049;-50
2021/11/27 00:18:16;;;;;;;11.43;6.15;;;2.60;99.90;;;;;;5011334;28;20108;-50
2021/11/27 00:20:58;;;;;;;11.30;5.63;;;2.60;99.90;;;;;;5013408;28;20026;-50
2021/11/27 00:23:25;;;;;;;8.20;4.97;;;2.60;99.90;;;;;;5016527;28;20112;-50
2021/11/27 00:25:51;;;;;;;11.63;6.00;;;2.60;99.90;;;;;;5014509;28;20033;-49
2021/11/27 00:28:18;;;;;;;9.70;5.32;;;2.70;99.90;;;;;;5013012;28;20026;-51
2021/11/27 00:30:44;;;;;;;11.13;5.20;;;2.60;99.90;;;;;;5011989;28;20021;-47
2021/11/27 00:33:09;;;;;;;14.85;7.10;;;2.60;99.90;;;;;;5012760;28;20036;-51
2021/11/27 00:35:35;;;;;;;11.55;5.70;;;2.60;99.90;;;;;;5013284;28;20029;-50
2021/11/27 00:38:02;;;;;;;9.82;5.28;;;2.60;99.90;;;;;;5012585;28;20026;-48
2021/11/27 00:40:29;;;;;;;10.45;5.00;;;2.60;99.90;;;;;;5013176;28;20036;-48
2021/11/27 00:42:55;;;;;;;7.50;4.20;;;2.60;99.90;;;;;;5012945;28;20614;-49
2021/11/27 00:45:23;;;;;;;10.40;5.53;;;2.60;99.90;;;;;;5012120;28;20029;-49
2021/11/27 00:47:52;;;;;;;12.90;4.72;;;2.60;99.90;;;;;;5012690;28;20067;-52
2021/11/27 00:50:23;;;;;;;10.25;5.63;;;2.60;99.90;;;;;;5012994;28;20018;-48
2021/11/27 00:52:49;;;;;;;16.95;7.53;;;2.60;99.90;;;;;;5012930;28;20469;-51
2021/11/27 00:55:16;;;;;;;12.38;5.32;;;2.60;99.90;;;;;;5012887;28;20444;-50
2021/11/27 00:57:42;;;;;;;9.27;5.43;;;2.60;99.90;;;;;;5012889;28;20080;-50
2021/11/27 01:00:14;;;;;;;10.70;5.43;;;2.60;99.90;;;;;;5011991;28;20096;-50
2021/11/27 01:02:41;;;;;;;10.05;5.10;;;2.60;99.90;;;;;;5012591;28;20025;-45
2021/11/27 01:05:09;;;;;;;11.38;6.22;;;2.60;99.90;;;;;;5012819;28;20030;-50
2021/11/27 01:07:35;;;;;;;13.43;5.90;;;2.60;99.90;;;;;;5012771;28;20018;-51
2021/11/27 01:10:03;;;;;;;12.43;5.80;;;2.60;99.90;;;;;;5012639;28;20026;-51
2021/11/27 01:12:29;;;;;;;11.88;5.75;;;2.50;99.90;;;;;;5012647;28;20050;-51
2021/11/27 01:14:54;;;;;;;9.95;5.55;;;2.60;99.90;;;;;;5011900;28;20461;-51
2021/11/27 01:17:20;;;;;;;11.20;5.10;;;2.50;99.90;;;;;;5012609;28;20394;-48
2021/11/27 01:19:46;;;;;;;9.57;4.93;;;2.50;99.90;;;;;;5012583;28;20026;-49
2021/11/27 01:22:16;;;;;;;9.27;5.20;;;2.50;99.90;;;;;;5012612;28;20117;-49
2021/11/27 01:24:43;;;;;;;11.73;6.10;;;2.50;99.90;;;;;;5012571;28;20034;-47
2021/11/27 01:27:10;;;;;;;13.80;6.45;;;2.50;99.90;;;;;;5012608;28;20018;-47
2021/11/27 01:29:38;;;;;;;9.07;4.70;;;2.50;99.90;;;;;;5011667;28;20152;-53
2021/11/27 01:32:05;;;;;;;10.27;5.72;;;2.60;99.90;;;;;;5012595;28;20099;-51
2021/11/27 01:34:31;;;;;;;10.55;5.43;;;2.60;99.90;;;;;;5012377;28;20026;-48
2021/11/27 01:36:56;;;;;;;13.50;6.25;;;2.60;99.90;;;;;;5012674;28;20161;-48
2021/11/27 01:39:22;;;;;;;12.43;6.43;;;2.60;99.90;;;;;;5012389;28;20057;-50
2021/11/27 01:41:47;;;;;;;11.70;5.78;;;2.60;99.90;;;;;;5012670;28;20026;-50
2021/11/27 01:44:13;;;;;;;13.98;6.28;;;2.60;99.90;;;;;;5011446;28;20022;-51
2021/11/27 01:46:39;;;;;;;12.13;5.90;;;2.60;99.90;;;;;;5012511;28;20022;-48
2021/11/27 01:49:06;;;;;;;11.20;5.40;;;2.60;99.90;;;;;;5014660;28;20045;-51
2021/11/27 01:51:32;;;;;;;9.48;5.80;;;2.70;99.90;;;;;;5016135;28;20022;-49
2021/11/27 01:54:05;;;;;;;12.75;6.28;;;2.70;99.90;;;;;;5015973;28;20084;-50
2021/11/27 01:56:40;;;;;;;15.77;6.32;;;2.60;99.90;;;;;;5016057;28;20033;-50
2021/11/27 01:59:07;;;;;;;14.77;7.18;;;2.60;99.90;;;;;;5014970;28;20412;-49
2021/11/27 02:01:34;;;;;;;14.05;6.45;;;2.60;99.90;;;;;;5015924;28;20026;-48
2021/11/27 02:04:04;;;;;;;9.63;6.38;;;2.60;99.90;;;;;;5015599;28;20025;-48
2021/11/27 02:06:30;;;;;;;12.70;6.25;;;2.60;99.90;;;;;;5015752;28;20030;-51
2021/11/27 02:08:57;;;;;;;10.88;6.22;;;2.60;99.90;;;;;;5015593;28;20026;-47
2021/11/27 02:11:27;;;;;;;10.50;5.82;;;2.60;99.90;;;;;;5015902;28;20113;-47
2021/11/27 02:13:53;;;;;;;12.90;6.20;;;2.60;99.90;;;;;;5014761;28;20083;-48
2021/11/27 02:16:19;;;;;;;10.95;6.28;;;2.60;99.90;;;;;;5015728;28;20022;-49
2021/11/27 02:18:45;;;;;;;16.00;7.10;;;2.60;99.90;;;;;;5015536;28;20026;-48
2021/11/27 02:21:14;;;;;;;13.70;6.82;;;2.60;99.90;;;;;;5015584;28;20033;-46
2021/11/27 02:23:40;;;;;;;14.07;6.97;;;2.60;99.90;;;;;;5015481;28;20022;-47
2021/11/27 02:26:09;;;;;;;11.65;6.07;;;2.50;99.90;;;;;;5015543;28;20034;-50
2021/11/27 02:28:37;;;;;;;13.30;7.40;;;2.60;99.90;;;;;;4997292;28;20548;-50
2021/11/27 02:31:03;;;;;;;14.20;7.10;;;2.60;99.90;;;;;;5015288;28;20370;-50
2021/11/27 02:33:28;;;;;;;11.57;5.78;;;2.50;99.90;;;;;;5014977;28;20118;-48
2021/11/27 02:35:54;;;;;;;11.88;6.15;;;2.50;99.90;;;;;;5015229;28;20475;-48
2021/11/27 02:38:20;;;;;;;16.27;6.63;;;2.50;99.90;;;;;;5015109;28;20049;-49
2021/11/27 02:40:45;;;;;;;10.40;6.70;;;2.60;99.90;;;;;;5015288;28;20037;-52
2021/11/27 02:43:11;;;;;;;15.60;7.05;;;2.60;99.90;;;;;;5015100;28;20380;-50
2021/11/27 02:45:36;;;;;;;13.68;7.00;;;2.60;99.90;;;;;;5014089;28;20049;-49
2021/11/27 02:48:03;;;;;;;18.63;7.93;;;2.60;99.90;;;;;;5014640;28;20049;-51
2021/11/27 02:50:28;;;;;;;13.65;6.93;;;2.60;99.90;;;;;;5014880;28;20101;-49
2021/11/27 02:52:54;;;;;;;15.23;7.13;;;2.60;99.90;;;;;;5014906;28;20068;-52
2021/11/27 02:55:20;;;;;;;14.75;6.88;;;2.50;99.90;;;;;;5014987;28;20034;-50
2021/11/27 02:57:45;;;;;;;12.48;7.32;;;2.60;99.90;;;;;;5015084;28;20481;-54
2021/11/27 03:00:14;;;;;;;14.38;6.68;;;2.60;99.90;;;;;;5013250;28;20096;-49
2021/11/27 03:02:40;;;;;;;14.23;7.43;;;2.60;99.90;;;;;;5014622;28;20377;-48
2021/11/27 03:05:07;;;;;;;14.95;7.90;;;2.50;99.90;;;;;;5014530;28;20037;-49
2021/11/27 03:07:32;;;;;;;14.57;8.23;;;2.40;99.90;;;;;;5014753;28;20096;-49
2021/11/27 03:09:59;;;;;;;19.85;8.95;;;2.40;99.90;;;;;;5014520;28;20069;-49
2021/11/27 03:12:25;;;;;;;12.45;7.32;;;2.40;99.90;;;;;;5014601;28;20113;-47
2021/11/27 03:14:50;;;;;;;15.02;7.47;;;2.30;99.90;;;;;;5013616;28;20469;-49
2021/11/27 03:17:16;;;;;;;15.95;8.00;;;2.30;99.90;;;;;;5014513;28;20063;-47
2021/11/27 03:19:43;;;;;;;15.82;7.57;;;2.30;99.90;;;;;;5014380;28;20396;-49
2021/11/27 03:22:10;;;;;;;13.60;7.40;;;2.20;99.90;;;;;;5014470;28;20041;-51
2021/11/27 03:24:37;;;;;;;13.35;7.15;;;2.20;99.90;;;;;;5014204;28;20046;-51
2021/11/27 03:27:02;;;;;;;16.23;8.63;;;2.20;99.90;;;;;;5014338;28;20445;-48
2021/11/27 03:29:29;;;;;;;15.82;8.45;;;2.20;99.90;;;;;;5013073;28;20034;-50
2021/11/27 03:31:59;;;;;;;15.00;7.32;;;2.20;99.90;;;;;;5014008;28;20101;-49
2021/11/27 03:34:25;;;;;;;17.88;8.93;;;2.30;99.90;;;;;;5014056;28;20040;-49
2021/11/27 03:36:51;;;;;;;12.68;7.93;;;2.30;99.90;;;;;;5014140;28;20410;-46
2021/11/27 03:39:17;;;;;;;15.50;8.05;;;2.20;99.90;;;;;;5013930;28;20444;-48
2021/11/27 03:41:42;;;;;;;16.10;7.95;;;2.20;99.90;;;;;;5014141;28;20026;-47
2021/11/27 03:44:08;;;;;;;14.25;8.07;;;2.20;99.90;;;;;;5011737;28;20034;-48
2021/11/27 03:46:34;;;;;;;19.67;8.25;;;2.20;99.90;;;;;;5003830;28;20022;-47
2021/11/27 03:48:59;;;;;;;17.63;8.65;;;2.20;99.90;;;;;;5011843;28;20081;-51
2021/11/27 03:51:26;;;;;;;18.70;8.60;;;2.20;99.90;;;;;;5011910;28;20397;-51
2021/11/27 03:53:53;;;;;;;18.83;8.52;;;2.20;99.90;;;;;;5011929;28;20049;-50
2021/11/27 03:56:25;;;;;;;13.55;6.50;;;2.20;99.90;;;;;;5012266;28;20030;-52
2021/11/27 03:58:51;;;;;;;18.58;8.00;;;2.10;99.90;;;;;;5010780;28;20026;-52
2021/11/27 04:01:19;;;;;;;20.13;9.35;;;2.10;99.90;;;;;;5011901;28;20021;-49
2021/11/27 04:03:46;;;;;;;15.98;8.43;;;2.10;99.90;;;;;;5011668;28;20065;-49
2021/11/27 04:06:12;;;;;;;17.85;8.90;;;2.10;99.90;;;;;;5011815;28;20404;-50
2021/11/27 04:08:38;;;;;;;19.75;8.95;;;2.10;99.90;;;;;;5011706;28;20022;-53
2021/11/27 04:11:04;;;;;;;15.38;8.13;;;2.10;99.90;;;;;;5011229;28;20026;-50
2021/11/27 04:13:29;;;;;;;15.02;8.05;;;2.10;99.90;;;;;;5011001;28;20030;-53
2021/11/27 04:15:55;;;;;;;13.30;7.45;;;2.10;99.90;;;;;;5011013;28;20075;-52
2021/11/27 04:18:21;;;;;;;14.77;7.97;;;2.10;99.90;;;;;;5011485;28;20059;-48
2021/11/27 04:20:47;;;;;;;19.02;8.63;;;2.10;99.90;;;;;;5011500;28;20115;-47
2021/11/27 04:23:13;;;;;;;15.18;8.55;;;2.00;99.90;;;;;;5011419;28;20049;-49
2021/11/27 04:25:39;;;;;;;16.38;8.52;;;2.00;99.90;;;;;;5011418;28;20037;-49
2021/11/27 04:28:05;;;;;;;13.95;7.82;;;1.90;99.90;;;;;;5011486;28;20026;-53
2021/11/27 04:30:32;;;;;;;22.60;8.27;;;1.80;99.90;;;;;;5010313;28;20465;-53
2021/11/27 04:32:58;;;;;;;17.80;8.20;;;1.70;99.90;;;;;;5011501;28;20030;-48
2021/11/27 04:35:25;;;;;;;13.18;7.05;;;1.70;99.90;;;;;;5011474;28;20026;-51
2021/11/27 04:37:51;;;;;;;15.57;8.13;;;1.60;99.90;;;;;;5011175;28;20030;-48
2021/11/27 04:40:17;;;;;;;19.83;8.20;;;1.50;99.90;;;;;;5011223;28;20088;-50
2021/11/27 04:42:43;;;;;;;19.25;8.98;;;1.40;99.90;;;;;;5011311;28;20172;-48
2021/11/27 04:45:10;;;;;;;15.75;8.02;;;1.30;99.90;;;;;;5009812;28;20037;-50
2021/11/27 04:47:36;;;;;;;16.85;8.05;;;1.30;99.90;;;;;;5011111;28;20133;-51
2021/11/27 04:50:03;;;;;;;16.77;7.47;;;1.20;99.90;;;;;;5011267;28;20068;-49
2021/11/27 04:52:28;;;;;;;16.80;8.63;;;1.10;99.90;;;;;;5011103;28;20084;-49
2021/11/27 04:54:54;;;;;;;16.70;9.07;;;1.10;99.90;;;;;;5011249;28;20025;-50
2021/11/27 04:57:20;;;;;;;25.40;9.73;;;1.00;99.90;;;;;;5011133;28;20033;-48
2021/11/27 04:59:46;;;;;;;21.85;9.15;;;1.00;99.90;;;;;;5010080;28;20596;-48
2021/11/27 05:02:12;;;;;;;24.77;11.13;;;1.00;99.90;;;;;;5011077;28;20025;-51
2021/11/27 05:04:39;;;;;;;19.52;9.85;;;1.00;99.90;;;;;;5010766;28;20038;-48
2021/11/27 05:07:05;;;;;;;20.90;9.52;;;1.00;99.90;;;;;;5011269;28;20049;-49
2021/11/27 05:09:31;;;;;;;19.42;9.30;;;1.00;99.90;;;;;;5010829;28;20033;-52
2021/11/27 05:11:56;;;;;;;18.10;9.70;;;1.00;99.90;;;;;;5010980;28;20194;-48
2021/11/27 05:14:22;;;;;;;20.35;10.52;;;1.00;99.90;;;;;;5010239;28;20037;-46
2021/11/27 05:16:48;;;;;;;21.90;10.38;;;1.00;99.90;;;;;;5010822;28;20387;-47
2021/11/27 05:19:13;;;;;;;22.25;9.85;;;1.00;99.90;;;;;;5011260;28;20085;-48
2021/11/27 05:21:39;;;;;;;24.55;11.10;;;1.00;99.90;;;;;;5008359;28;20034;-49
2021/11/27 05:24:05;;;;;;;21.20;10.95;;;1.00;99.90;;;;;;5013502;28;20537;-48
2021/11/27 05:26:31;;;;;;;24.08;10.80;;;1.00;99.90;;;;;;5014606;28;20022;-50
2021/11/27 05:28:56;;;;;;;21.00;9.35;;;0.90;99.90;;;;;;5013928;28;20303;-50
2021/11/27 05:31:23;;;;;;;22.00;10.05;;;0.90;99.90;;;;;;5014737;28;20389;-50
2021/11/27 05:36:27;;;;;;;20.52;9.02;;;0.80;99.90;;;;;;5014522;28;20018;-48
2021/11/27 05:38:52;;;;;;;19.40;8.93;;;0.80;99.90;;;;;;5014383;28;20026;-48
2021/11/27 05:41:18;;;;;;;20.20;9.68;;;0.90;99.90;;;;;;5014316;28;20036;-47
2021/11/27 05:43:44;;;;;;;22.10;9.73;;;0.90;99.90;;;;;;5013111;28;20022;-46
2021/11/27 05:46:10;;;;;;;21.45;9.35;;;0.90;99.90;;;;;;5014140;28;20478;-51
2021/11/27 05:48:36;;;;;;;23.17;11.70;;;1.00;99.90;;;;;;5012662;28;20516;-51
2021/11/27 05:51:02;;;;;;;21.83;11.35;;;1.00;99.90;;;;;;5014228;28;20026;-47
2021/11/27 05:53:27;;;;;;;26.48;10.90;;;1.00;99.90;;;;;;5014319;28;20496;-47
2021/11/27 05:55:53;;;;;;;27.58;11.77;;;1.00;99.90;;;;;;5011199;28;20034;-48
2021/11/27 05:58:20;;;;;;;24.08;12.70;;;1.00;99.90;;;;;;4995213;28;20555;-50
2021/11/27 06:00:47;;;;;;;33.45;13.15;;;1.00;99.90;;;;;;5012368;28;20497;-52
2021/11/27 06:03:13;;;;;;;24.95;11.65;;;1.10;99.90;;;;;;5013779;28;20036;-47
2021/11/27 06:05:39;;;;;;;23.83;11.10;;;1.10;99.90;;;;;;5013845;28;20425;-50
2021/11/27 06:08:05;;;;;;;23.75;12.00;;;1.10;99.90;;;;;;5013717;28;20033;-48
2021/11/27 06:10:32;;;;;;;28.77;11.77;;;1.20;99.90;;;;;;5013221;28;20033;-45
2021/11/27 06:12:58;;;;;;;25.80;11.98;;;1.20;99.90;;;;;;5013779;28;20200;-50
2021/11/27 06:15:24;;;;;;;29.52;13.00;;;1.20;99.90;;;;;;5012396;28;20033;-50
2021/11/27 06:17:49;;;;;;;22.60;11.20;;;1.20;99.90;;;;;;5013750;28;20481;-51
2021/11/27 06:20:15;;;;;;;31.15;13.05;;;1.20;99.90;;;;;;5013746;28;20065;-49
2021/11/27 06:22:41;;;;;;;25.35;11.13;;;1.20;99.90;;;;;;5013560;28;20038;-51
2021/11/27 06:25:07;;;;;;;29.60;12.32;;;1.20;99.90;;;;;;5013614;28;20030;-49
2021/11/27 06:27:33;;;;;;;27.67;11.10;;;1.20;99.90;;;;;;5013304;28;20032;-47
2021/11/27 06:29:59;;;;;;;20.15;10.32;;;1.30;99.90;;;;;;5012293;28;20054;-48
2021/11/27 06:32:25;;;;;;;30.35;12.23;;;1.20;99.90;;;;;;5013583;28;20069;-48
2021/11/27 06:34:53;;;;;;;25.55;11.93;;;1.20;99.90;;;;;;5012470;28;20029;-49
2021/11/27 06:37:20;;;;;;;25.50;11.35;;;1.20;99.90;;;;;;5013127;28;20038;-49
2021/11/27 06:39:45;;;;;;;25.58;11.75;;;1.20;99.90;;;;;;5013054;28;20041;-53
2021/11/27 06:42:11;;;;;;;27.58;11.13;;;1.20;99.90;;;;;;5013122;28;20042;-50
2021/11/27 06:44:37;;;;;;;24.40;11.15;;;1.20;99.90;;;;;;5012006;28;20029;-49
2021/11/27 06:47:03;;;;;;;27.30;12.60;;;1.20;99.90;;;;;;5012582;28;20270;-52
2021/11/27 06:49:28;;;;;;;30.52;12.35;;;1.20;99.90;;;;;;5013359;28;20080;-51
2021/11/27 06:51:54;;;;;;;28.63;12.73;;;1.10;99.90;;;;;;5013116;28;20026;-50
2021/11/27 06:54:20;;;;;;;28.13;12.32;;;1.10;99.90;;;;;;5013115;28;20030;-50
2021/11/27 06:56:45;;;;;;;18.85;10.27;;;1.10;99.90;;;;;;5012887;28;20026;-51
2021/11/27 06:59:11;;;;;;;27.58;13.23;;;1.10;99.90;;;;;;5003870;28;20049;-47
2021/11/27 07:01:36;;;;;;;28.20;13.13;;;1.10;99.90;;;;;;5006710;28;20109;-50
2021/11/27 07:04:02;;;;;;;29.83;12.88;;;1.10;99.90;;;;;;5012764;28;20046;-52
2021/11/27 07:06:27;;;;;;;31.50;12.93;;;1.20;99.90;;;;;;5012844;28;20030;-50
2021/11/27 07:08:53;;;;;;;29.17;13.05;;;1.20;99.90;;;;;;5012594;28;20098;-52
2021/11/27 07:11:18;;;;;;;27.75;12.90;;;1.30;99.90;;;;;;5012727;28;20026;-49
2021/11/27 07:13:44;;;;;;;30.52;13.45;;;1.40;99.90;;;;;;5011948;28;20117;-48
2021/11/27 07:16:09;;;;;;;28.83;13.63;;;1.40;99.90;;;;;;5004801;28;20072;-49
2021/11/27 07:18:35;;;;;;;34.13;15.02;;;1.40;99.90;;;;;;5012354;28;20040;-50
2021/11/27 07:21:01;;;;;;;32.97;13.38;;;1.50;99.90;;;;;;5012357;28;20060;-52
2021/11/27 07:23:26;;;;;;;36.20;14.85;;;1.60;99.90;;;;;;5011947;28;20030;-49
2021/11/27 07:25:52;;;;;;;36.70;13.27;;;1.70;99.90;;;;;;5012040;28;20030;-50
2021/11/27 07:28:18;;;;;;;35.10;14.80;;;1.70;99.90;;;;;;5011906;28;20025;-52
2021/11/27 07:30:43;;;;;;;34.25;15.88;;;1.80;99.90;;;;;;5011637;28;20090;-48
2021/11/27 07:33:09;;;;;;;27.45;13.73;;;1.80;99.90;;;;;;5011656;28;20025;-56
2021/11/27 07:35:34;;;;;;;34.17;13.90;;;1.80;99.90;;;;;;5012107;28;20088;-48
2021/11/27 07:38:00;;;;;;;32.75;13.18;;;1.90;99.90;;;;;;5011680;28;20385;-48
2021/11/27 07:40:26;;;;;;;29.90;12.90;;;2.00;99.90;;;;;;5012227;28;20109;-50
2021/11/27 07:42:52;;;;;;;32.70;14.32;;;2.00;99.90;;;;;;5011465;28;20022;-50
2021/11/27 07:45:21;;;;;;;32.38;15.55;;;2.10;99.90;;;;;;5010988;28;20449;-48
2021/11/27 07:47:47;;;;;;;32.83;15.00;;;2.10;99.90;;;;;;4998845;28;20076;-49
2021/11/27 07:50:13;;;;;;;45.28;18.48;;;2.20;99.90;;;;;;5011873;28;20037;-47
2021/11/27 07:52:38;;;;;;;28.73;14.82;;;2.30;99.90;;;;;;5011436;28;20079;-49
2021/11/27 07:55:04;;;;;;;34.70;15.88;;;2.40;99.90;;;;;;5011845;28;20060;-50
2021/11/27 07:57:30;;;;;;;32.30;15.10;;;2.50;99.90;;;;;;5011629;28;20069;-48
2021/11/27 07:59:56;;;;;;;34.10;15.15;;;2.60;99.90;;;;;;5010925;28;20437;-53
2021/11/27 08:02:21;;;;;;;31.80;14.55;;;2.80;99.90;;;;;;5011860;28;20531;-45
2021/11/27 08:04:47;;;;;;;30.92;14.20;;;3.00;99.90;;;;;;5011967;28;20030;-48
2021/11/27 08:07:12;;;;;;;28.98;12.85;;;3.10;99.90;;;;;;5011251;28;20034;-52
2021/11/27 08:09:38;;;;;;;29.52;13.65;;;3.20;99.90;;;;;;5011955;28;20061;-47
2021/11/27 08:12:04;;;;;;;30.95;15.93;;;3.40;99.90;;;;;;5004666;28;20053;-49
2021/11/27 08:14:32;;;;;;;34.40;15.90;;;3.40;99.90;;;;;;5010302;28;20532;-52
2021/11/27 08:16:59;;;;;;;35.30;17.77;;;3.40;99.90;;;;;;5011595;28;20034;-51
2021/11/27 08:19:25;;;;;;;32.75;16.38;;;3.30;99.90;;;;;;5011772;28;20193;-48
2021/11/27 08:21:51;;;;;;;31.77;15.52;;;3.20;99.90;;;;;;5011299;28;20163;-52
2021/11/27 08:24:16;;;;;;;28.23;14.90;;;3.20;99.90;;;;;;5011204;28;20113;-55
2021/11/27 08:26:42;;;;;;;35.47;17.75;;;3.20;99.90;;;;;;5011495;28;20026;-50
2021/11/27 08:29:08;;;;;;;34.92;15.55;;;3.30;99.90;;;;;;5010155;28;20018;-51
2021/11/27 08:31:33;;;;;;;24.92;12.15;;;3.30;99.90;;;;;;5011435;28;20026;-46
2021/11/27 08:33:59;;;;;;;31.48;15.13;;;3.30;99.90;;;;;;5011238;28;20143;-50
2021/11/27 08:36:25;;;;;;;29.85;14.88;;;3.30;99.90;;;;;;5011091;28;20025;-50
2021/11/27 08:38:50;;;;;;;29.02;14.23;;;3.40;99.90;;;;;;5011195;28;20022;-47
2021/11/27 08:41:16;;;;;;;34.80;16.40;;;3.50;99.90;;;;;;5011262;28;20036;-48
2021/11/27 08:43:41;;;;;;;37.17;15.88;;;3.50;99.90;;;;;;5010022;28;20449;-50
2021/11/27 08:46:07;;;;;;;34.35;17.20;;;3.50;99.90;;;;;;5011208;28;20109;-49
2021/11/27 08:48:36;;;;;;;29.27;14.75;;;3.60;99.90;;;;;;5011200;28;20042;-53
2021/11/27 08:51:08;;;;;;;30.23;13.80;;;3.70;99.90;;;;;;5010973;28;20121;-52
2021/11/27 08:53:34;;;;;;;30.92;15.93;;;3.90;99.90;;;;;;5010874;28;20092;-49
2021/11/27 08:55:59;;;;;;;27.73;13.52;;;4.10;99.90;;;;;;5011002;28;20433;-50
2021/11/27 08:58:25;;;;;;;28.10;14.80;;;4.30;99.90;;;;;;5009971;28;20030;-49
2021/11/27 09:00:50;;;;;;;29.15;14.13;;;4.60;99.90;;;;;;5010476;28;20030;-52
2021/11/27 09:03:16;;;;;;;29.65;15.32;;;4.70;99.90;;;;;;5011010;28;20029;-51
2021/11/27 09:05:41;;;;;;;32.50;15.30;;;4.80;99.90;;;;;;4993221;28;20092;-48
2021/11/27 09:08:07;;;;;;;26.25;14.55;;;5.00;99.90;;;;;;5011007;28;20465;-47
2021/11/27 09:10:34;;;;;;;27.60;14.27;;;5.00;99.90;;;;;;5010984;28;20424;-50
2021/11/27 09:13:00;;;;;;;27.15;15.18;;;5.10;99.90;;;;;;5010670;28;20102;-50
2021/11/27 09:15:26;;;;;;;25.85;14.68;;;5.20;99.90;;;;;;5009984;28;20477;-50
2021/11/27 09:17:52;;;;;;;26.65;14.38;;;5.20;98.10;;;;;;5010859;28;20428;-51
2021/11/27 09:20:17;;;;;;;31.15;16.27;;;5.20;99.90;;;;;;5010837;28;20075;-48
2021/11/27 09:22:43;;;;;;;30.80;14.65;;;5.10;99.90;;;;;;5010682;28;20026;-50
2021/11/27 09:25:10;;;;;;;27.70;13.95;;;5.00;98.70;;;;;;5010708;28;20083;-46
2021/11/27 09:27:36;;;;;;;27.80;14.82;;;5.00;99.90;;;;;;5011167;28;20478;-51
2021/11/27 09:30:04;;;;;;;33.00;15.98;;;5.00;99.00;;;;;;5009640;28;20105;-52
2021/11/27 09:32:30;;;;;;;25.10;13.30;;;4.90;99.20;;;;;;5010999;28;20018;-49
2021/11/27 09:34:56;;;;;;;28.52;14.00;;;4.80;99.50;;;;;;5012960;28;20033;-48
2021/11/27 09:37:23;;;;;;;28.65;13.75;;;4.70;99.90;;;;;;5021108;28;20128;-51
2021/11/27 09:39:49;;;;;;;24.85;12.63;;;4.80;99.90;;;;;;5010600;28;20054;-54
2021/11/27 09:42:17;;;;;;;25.65;13.23;;;4.90;99.90;;;;;;5010809;28;20603;-50
2021/11/27 09:44:53;;;;;;;29.50;14.45;;;4.90;99.50;;;;;;5009414;28;20461;-50
2021/11/27 09:47:19;;;;;;;27.60;14.40;;;4.90;98.80;;;;;;5010258;28;20117;-47
2021/11/27 09:49:46;;;;;;;24.10;12.80;;;4.80;99.90;;;;;;5010664;28;20152;-49
2021/11/27 09:52:13;;;;;;;24.42;12.75;;;4.90;98.90;;;;;;5010519;28;20022;-48
2021/11/27 09:54:39;;;;;;;29.00;12.68;;;4.90;98.40;;;;;;5010640;28;20134;-50
2021/11/27 09:57:06;;;;;;;29.58;14.85;;;4.90;99.60;;;;;;5010497;28;20740;-47
2021/11/27 09:59:33;;;;;;;33.92;16.65;;;5.00;99.30;;;;;;5009466;28;20049;-49
2021/11/27 10:02:00;;;;;;;33.95;16.20;;;4.90;98.50;;;;;;5010412;28;20493;-51
2021/11/27 10:04:28;;;;;;;28.65;13.90;;;5.00;98.30;;;;;;5010328;28;20057;-53
2021/11/27 10:06:58;;;;;;;28.83;14.93;;;5.00;97.70;;;;;;5005846;28;20101;-47
2021/11/27 10:09:24;;;;;;;30.45;13.63;;;5.00;96.70;;;;;;5010343;28;20085;-50
2021/11/27 10:11:51;;;;;;;27.05;14.00;;;5.00;97.50;;;;;;5013970;28;20026;-46
2021/11/27 10:14:18;;;;;;;24.67;13.40;;;5.00;98.10;;;;;;5012745;28;20496;-48
2021/11/27 10:16:59;;;;;;;23.98;12.32;;;5.10;96.80;;;;;;5014176;28;20033;-51
2021/11/27 10:19:28;;;;;;;27.55;12.75;;;5.20;97.60;;;;;;5013795;28;20038;-49
2021/11/27 10:22:00;;;;;;;22.83;11.85;;;5.30;97.20;;;;;;5013791;28;20032;-48
2021/11/27 10:24:32;;;;;;;21.85;11.73;;;5.30;97.10;;;;;;5013640;28;20048;-48
2021/11/27 10:27:02;;;;;;;21.67;11.45;;;5.30;96.10;;;;;;5013651;28;20022;-50
2021/11/27 10:29:33;;;;;;;23.38;12.90;;;5.20;97.10;;;;;;5012511;28;20037;-47
2021/11/27 10:32:08;;;;;;;24.83;12.57;;;5.30;96.60;;;;;;5013469;28;20021;-51
2021/11/27 10:34:34;;;;;;;26.05;12.75;;;5.30;97.40;;;;;;5013363;28;20117;-49
2021/11/27 10:37:00;;;;;;;27.73;13.43;;;5.20;97.10;;;;;;5013678;28;20037;-51
2021/11/27 10:39:26;;;;;;;28.60;14.27;;;5.20;97.30;;;;;;5013312;28;20440;-48
2021/11/27 10:42:01;;;;;;;25.73;12.77;;;5.20;97.10;;;;;;5013572;28;20072;-48
2021/11/27 10:44:36;;;;;;;31.27;14.75;;;5.10;96.10;;;;;;5011902;28;20025;-47
2021/11/27 10:47:17;;;;;;;32.35;16.15;;;5.00;97.10;;;;;;5013058;28;20030;-55
2021/11/27 10:49:46;;;;;;;29.80;16.10;;;4.90;97.60;;;;;;4995767;28;20544;-53
2021/11/27 10:52:18;;;;;;;32.75;16.38;;;4.80;98.30;;;;;;5013022;28;20084;-51
2021/11/27 10:54:46;;;;;;;27.75;13.50;;;4.80;99.30;;;;;;5014149;28;20481;-48
2021/11/27 10:57:35;;;;;;;29.50;15.52;;;4.90;99.90;;;;;;5014034;28;20042;-50
2021/11/27 11:00:12;;;;;;;23.73;13.13;;;4.90;99.60;;;;;;5012828;28;20076;-53
2021/11/27 11:02:39;;;;;;;28.80;14.30;;;5.00;99.90;;;;;;5013644;28;20072;-51
2021/11/27 11:05:10;;;;;;;29.05;14.10;;;5.00;98.20;;;;;;5013831;28;20033;-53
2021/11/27 11:07:36;;;;;;;28.88;15.02;;;5.10;99.80;;;;;;5013940;28;20460;-50
2021/11/27 11:10:24;;;;;;;30.98;15.13;;;5.00;98.90;;;;;;5013972;28;20442;-50
2021/11/27 11:12:57;;;;;;;29.85;13.50;;;5.00;98.10;;;;;;5013705;28;20029;-45
2021/11/27 11:15:35;;;;;;;26.23;13.65;;;5.00;99.40;;;;;;5012442;28;20034;-49
2021/11/27 11:18:07;;;;;;;32.30;14.75;;;5.00;99.20;;;;;;5013887;28;20029;-48
2021/11/27 11:20:33;;;;;;;29.33;15.45;;;5.00;99.50;;;;;;5012989;28;20032;-51
2021/11/27 11:23:03;;;;;;;31.70;16.92;;;4.90;99.50;;;;;;5013609;28;20388;-49
2021/11/27 11:25:29;;;;;;;32.38;15.93;;;4.80;99.60;;;;;;5013083;28;20034;-51
2021/11/27 11:27:58;;;;;;;30.40;15.05;;;4.80;99.90;;;;;;5013503;28;20033;-48
2021/11/27 11:30:35;;;;;;;28.48;14.18;;;4.90;99.90;;;;;;5012020;28;20045;-48
2021/11/27 11:33:01;;;;;;;29.80;15.02;;;4.90;99.90;;;;;;5013436;28;20029;-47
2021/11/27 11:35:27;;;;;;;33.30;16.25;;;4.90;99.90;;;;;;5013185;28;20052;-52
2021/11/27 11:37:53;;;;;;;30.88;16.55;;;4.80;99.90;;;;;;5013632;28;20029;-50
2021/11/27 11:40:19;;;;;;;33.95;17.30;;;4.80;99.90;;;;;;5013068;28;20088;-48
2021/11/27 11:42:45;;;;;;;29.30;15.43;;;4.70;99.90;;;;;;5013226;28;20420;-50
2021/11/27 11:45:10;;;;;;;33.40;15.73;;;4.80;99.90;;;;;;5011902;28;20109;-53
2021/11/27 11:47:36;;;;;;;32.45;15.38;;;4.70;99.90;;;;;;5012899;28;20048;-49
2021/11/27 11:50:05;;;;;;;35.33;15.32;;;4.60;99.90;;;;;;5013055;28;20026;-49
2021/11/27 11:52:50;;;;;;;28.40;14.52;;;4.60;99.90;;;;;;5012553;28;20040;-49
2021/11/27 11:55:17;;;;;;;34.22;16.55;;;4.70;99.90;;;;;;5012740;28;20084;-50
2021/11/27 11:57:57;;;;;;;32.45;17.38;;;4.70;99.90;;;;;;5012935;28;20072;-50
2021/11/27 12:00:26;;;;;;;32.13;15.70;;;4.60;99.90;;;;;;5011450;28;20029;-52
2021/11/27 12:02:52;;;;;;;32.97;16.60;;;4.60;99.90;;;;;;5012675;28;20038;-50
2021/11/27 12:05:22;;;;;;;33.80;16.58;;;4.60;99.90;;;;;;5012461;28;20026;-50
2021/11/27 12:07:54;;;;;;;31.98;16.30;;;4.50;99.90;;;;;;5012860;28;20040;-48
2021/11/27 12:10:30;;;;;;;33.15;17.63;;;4.50;99.90;;;;;;5012468;28;20032;-52
2021/11/27 12:13:05;;;;;;;33.55;17.73;;;4.40;99.90;;;;;;4995210;28;20049;-51
2021/11/27 12:15:33;;;;;;;35.28;18.75;;;4.40;99.90;;;;;;5011307;28;20040;-51
2021/11/27 12:18:02;;;;;;;32.65;16.27;;;4.30;99.90;;;;;;5012536;28;20029;-49
2021/11/27 12:20:45;;;;;;;29.42;14.68;;;4.30;99.90;;;;;;4994641;28;20030;-47
2021/11/27 12:23:26;;;;;;;32.67;16.20;;;4.40;99.90;;;;;;5012517;28;20523;-49
2021/11/27 12:26:07;;;;;;;39.38;17.33;;;4.40;99.90;;;;;;5012221;28;20053;-51
2021/11/27 12:28:48;;;;;;;32.03;16.35;;;4.40;99.90;;;;;;5011133;28;20033;-52
2021/11/27 12:31:25;;;;;;;30.60;16.08;;;4.30;99.90;;;;;;5012264;28;20480;-48
2021/11/27 12:33:59;;;;;;;33.90;17.92;;;4.40;99.90;;;;;;5011653;28;20487;-49
2021/11/27 12:36:25;;;;;;;34.10;17.38;;;4.30;99.90;;;;;;5012029;28;20025;-47
2021/11/27 12:39:01;;;;;;;30.63;16.95;;;4.30;99.90;;;;;;5012358;28;20026;-50
2021/11/27 12:41:32;;;;;;;38.78;18.58;;;4.30;99.90;;;;;;5012028;28;20484;-48
2021/11/27 12:44:16;;;;;;;36.22;17.52;;;4.30;99.90;;;;;;5011028;28;20038;-50